createdAt,value
2023-04-16T00:01:18.651Z,5.90
2023-04-16T00:03:20.584Z,5.90
2023-04-16T00:05:22.618Z,6.00
2023-04-16T00:07:24.493Z,6.00
2023-04-16T00:09:26.177Z,5.90
2023-04-16T00:11:27.921Z,5.90
2023-04-16T00:13:29.620Z,5.90
2023-04-16T00:15:31.266Z,5.90
2023-04-16T00:17:33.022Z,5.90
2023-04-16T00:19:34.688Z,6.00
2023-04-16T00:21:36.329Z,5.90
2023-04-16T00:23:38.423Z,6.00
2023-04-16T00:25:40.368Z,5.90
2023-04-16T00:27:42.210Z,5.90
2023-04-16T00:29:43.896Z,5.90
2023-04-16T00:31:45.518Z,5.90
2023-04-16T00:33:47.220Z,5.90
2023-04-16T00:35:49.187Z,5.90
2023-04-16T00:37:50.896Z,5.90
2023-04-16T00:39:52.606Z,6.00
2023-04-16T00:41:54.462Z,6.00
2023-04-16T00:43:56.227Z,6.00
2023-04-16T00:45:58.133Z,5.90
2023-04-16T00:48:01.150Z,5.90
2023-04-16T00:50:06.422Z,5.90
2023-04-16T00:52:08.150Z,5.90
2023-04-16T00:54:09.838Z,5.90
2023-04-16T00:56:12.631Z,5.90
2023-04-16T00:58:14.430Z,5.90
2023-04-16T01:00:16.418Z,5.90
2023-04-16T01:02:18.368Z,5.90
2023-04-16T01:04:21.793Z,5.90
2023-04-16T01:06:23.685Z,5.90
2023-04-16T01:08:25.561Z,5.90
2023-04-16T01:10:27.278Z,5.90
2023-04-16T01:12:29.087Z,5.90
2023-04-16T01:14:36.124Z,5.90
2023-04-16T01:16:37.833Z,5.90
2023-04-16T01:18:40.054Z,5.90
2023-04-16T01:20:41.734Z,5.80
2023-04-16T01:22:43.399Z,5.80
2023-04-16T01:24:45.674Z,5.90
2023-04-16T01:26:47.315Z,5.80
2023-04-16T01:28:49.357Z,5.80
2023-04-16T01:30:51.216Z,5.80
2023-04-16T01:32:52.908Z,5.90
2023-04-16T01:34:54.715Z,5.80
2023-04-16T01:36:56.578Z,5.80
2023-04-16T01:38:58.245Z,5.80
2023-04-16T01:40:59.918Z,5.80
2023-04-16T01:43:01.908Z,5.80
2023-04-16T01:45:04.478Z,5.80
2023-04-16T01:47:06.177Z,5.80
2023-04-16T01:49:08.222Z,5.80
2023-04-16T01:51:10.226Z,5.80
2023-04-16T01:53:11.964Z,5.80
2023-04-16T01:55:13.718Z,5.80
2023-04-16T01:57:15.361Z,5.90
2023-04-16T01:59:17.126Z,5.80
2023-04-16T02:01:19.358Z,5.80
2023-04-16T02:03:21.540Z,5.80
2023-04-16T02:05:23.458Z,5.80
2023-04-16T02:07:25.865Z,5.80
2023-04-16T02:09:27.531Z,5.80
2023-04-16T02:11:29.216Z,5.80
2023-04-16T02:13:30.958Z,5.80
2023-04-16T02:15:32.699Z,5.80
2023-04-16T02:17:34.385Z,5.80
2023-04-16T02:19:36.307Z,5.90
2023-04-16T02:21:38.047Z,5.80
2023-04-16T02:23:41.106Z,5.80
2023-04-16T02:25:45.060Z,5.80
2023-04-16T02:27:46.720Z,5.80
2023-04-16T02:29:48.434Z,5.80
2023-04-16T02:31:50.436Z,5.80
2023-04-16T02:33:52.160Z,5.80
2023-04-16T02:35:53.881Z,5.80
2023-04-16T02:37:55.526Z,5.80
2023-04-16T02:39:57.861Z,5.90
2023-04-16T02:42:00.635Z,5.80
2023-04-16T02:44:02.314Z,5.80
2023-04-16T02:46:04.231Z,5.80
2023-04-16T02:48:07.331Z,5.90
2023-04-16T02:50:09.425Z,5.80
2023-04-16T02:52:11.053Z,5.80
2023-04-16T02:54:12.788Z,5.80
2023-04-16T02:56:14.568Z,5.80
2023-04-16T02:58:16.531Z,5.80
2023-04-16T03:00:18.602Z,5.80
2023-04-16T03:02:20.568Z,5.80
2023-04-16T03:04:22.330Z,5.80
2023-04-16T03:06:24.089Z,5.80
2023-04-16T03:08:26.492Z,5.80
2023-04-16T03:10:28.391Z,5.80
2023-04-16T03:12:30.233Z,5.80
2023-04-16T03:14:32.367Z,5.80
2023-04-16T03:16:34.088Z,5.80
2023-04-16T03:18:35.763Z,5.80
2023-04-16T03:20:37.440Z,5.80
2023-04-16T03:22:39.686Z,5.80
2023-04-16T03:24:41.559Z,5.80
2023-04-16T03:26:43.237Z,5.90
2023-04-16T03:28:44.934Z,5.90
2023-04-16T03:30:53.649Z,5.90
2023-04-16T03:32:55.612Z,5.80
2023-04-16T03:34:57.516Z,5.80
2023-04-16T03:36:59.412Z,5.80
2023-04-16T03:39:01.348Z,5.80
2023-04-16T03:41:03.032Z,5.90
2023-04-16T03:43:04.696Z,5.80
2023-04-16T03:45:06.784Z,5.80
2023-04-16T03:47:08.473Z,5.90
2023-04-16T03:49:10.438Z,5.80
2023-04-16T03:51:12.293Z,5.90
2023-04-16T03:53:14.725Z,5.90
2023-04-16T03:55:16.576Z,5.90
2023-04-16T03:57:18.372Z,5.90
2023-04-16T03:59:20.104Z,5.90
2023-04-16T04:01:21.861Z,5.80
2023-04-16T04:03:23.863Z,5.80
2023-04-16T04:05:26.004Z,5.90
2023-04-16T04:07:27.666Z,5.90
2023-04-16T04:09:29.300Z,5.90
2023-04-16T04:11:31.468Z,5.90
2023-04-16T04:13:33.088Z,5.90
2023-04-16T04:15:34.951Z,5.90
2023-04-16T04:17:36.896Z,5.90
2023-04-16T04:19:42.296Z,5.90
2023-04-16T04:21:49.195Z,5.90
2023-04-16T04:23:50.841Z,5.90
2023-04-16T04:25:52.539Z,5.90
2023-04-16T04:27:54.224Z,5.90
2023-04-16T04:29:57.604Z,5.90
2023-04-16T04:31:59.315Z,5.90
2023-04-16T04:34:00.984Z,5.90
2023-04-16T04:36:02.708Z,5.90
2023-04-16T04:38:05.395Z,5.90
2023-04-16T04:40:07.808Z,5.90
2023-04-16T04:42:09.737Z,5.90
2023-04-16T04:44:11.345Z,5.90
2023-04-16T04:46:13.050Z,5.90
2023-04-16T04:48:15.284Z,5.90
2023-04-16T04:50:17.237Z,5.90
2023-04-16T04:52:20.458Z,5.90
2023-04-16T04:54:22.170Z,5.90
2023-04-16T04:56:23.891Z,5.90
2023-04-16T04:58:25.550Z,5.90
2023-04-16T05:00:27.195Z,5.90
2023-04-16T05:02:28.872Z,5.90
2023-04-16T05:04:31.336Z,5.90
2023-04-16T05:06:33.096Z,5.90
2023-04-16T05:08:34.739Z,5.90
2023-04-16T05:10:36.434Z,5.90
2023-04-16T05:12:38.115Z,5.90
2023-04-16T05:14:39.823Z,5.90
2023-04-16T05:16:41.604Z,5.90
2023-04-16T05:18:43.288Z,5.90
2023-04-16T05:20:44.881Z,5.90
2023-04-16T05:22:46.536Z,5.90
2023-04-16T05:24:48.207Z,5.90
2023-04-16T05:26:49.935Z,5.90
2023-04-16T05:28:51.560Z,5.90
2023-04-16T05:30:53.213Z,5.90
2023-04-16T05:32:54.949Z,5.90
2023-04-16T05:34:56.770Z,5.90
2023-04-16T05:36:58.441Z,5.90
2023-04-16T05:39:00.105Z,5.90
2023-04-16T05:41:01.841Z,5.90
2023-04-16T05:43:03.558Z,5.90
2023-04-16T05:45:06.790Z,5.90
2023-04-16T05:47:09.463Z,5.90
2023-04-16T05:49:11.478Z,5.90
2023-04-16T05:51:13.367Z,5.90
2023-04-16T05:53:15.489Z,5.90
2023-04-16T05:55:17.152Z,5.90
2023-04-16T05:57:19.030Z,5.90
2023-04-16T05:59:20.652Z,5.90
2023-04-16T06:01:22.596Z,6.00
2023-04-16T06:03:24.387Z,6.00
2023-04-16T06:05:29.804Z,6.00
2023-04-16T06:07:31.541Z,6.00
2023-04-16T06:09:33.216Z,6.00
2023-04-16T06:11:36.398Z,6.00
2023-04-16T06:13:39.229Z,6.00
2023-04-16T06:15:41.083Z,6.00
2023-04-16T06:17:42.807Z,6.00
2023-04-16T06:19:44.620Z,6.00
2023-04-16T06:21:46.308Z,6.00
2023-04-16T06:23:48.121Z,6.00
2023-04-16T06:25:49.925Z,6.00
2023-04-16T06:27:51.526Z,6.00
2023-04-16T06:29:53.343Z,6.00
2023-04-16T06:31:55.527Z,6.00
2023-04-16T06:33:57.343Z,6.00
2023-04-16T06:35:58.980Z,6.00
2023-04-16T06:38:00.833Z,5.90
2023-04-16T06:40:02.592Z,6.00
2023-04-16T06:42:04.544Z,6.00
2023-04-16T06:44:06.484Z,6.50
2023-04-16T06:46:08.845Z,6.00
2023-04-16T06:48:11.419Z,6.00
2023-04-16T06:50:13.594Z,6.00
2023-04-16T06:52:15.432Z,6.00
2023-04-16T06:54:17.111Z,6.00
2023-04-16T06:56:19.943Z,6.00
2023-04-16T06:58:23.172Z,6.10
2023-04-16T07:00:25.034Z,6.00
2023-04-16T07:02:26.914Z,6.00
2023-04-16T07:04:28.827Z,6.00
2023-04-16T07:06:31.973Z,6.00
2023-04-16T07:08:34.402Z,6.00
2023-04-16T07:10:36.220Z,6.00
2023-04-16T07:12:38.132Z,6.00
2023-04-16T07:14:39.865Z,6.00
2023-04-16T07:16:41.830Z,6.10
2023-04-16T07:18:43.524Z,6.00
2023-04-16T07:20:45.458Z,6.00
2023-04-16T07:22:47.195Z,6.00
2023-04-16T07:24:48.827Z,6.00
2023-04-16T07:26:50.543Z,6.00
2023-04-16T07:28:52.217Z,6.00
2023-04-16T07:30:53.874Z,6.00
2023-04-16T07:32:56.072Z,6.00
2023-04-16T07:34:57.945Z,6.00
2023-04-16T07:36:59.646Z,6.00
2023-04-16T07:39:01.288Z,6.00
2023-04-16T07:41:03.100Z,6.10
2023-04-16T07:43:04.791Z,6.10
2023-04-16T07:45:07.496Z,6.10
2023-04-16T07:47:09.198Z,6.10
2023-04-16T07:51:13.713Z,6.10
2023-04-16T07:53:15.701Z,6.10
2023-04-16T07:55:17.772Z,6.10
2023-04-16T07:57:19.731Z,6.20
2023-04-16T07:59:24.019Z,6.20
2023-04-16T08:01:26.631Z,6.20
2023-04-16T08:03:28.716Z,6.20
2023-04-16T08:05:30.536Z,6.20
2023-04-16T08:07:34.398Z,6.20
2023-04-16T08:09:36.585Z,6.20
2023-04-16T08:11:38.336Z,6.20
2023-04-16T08:13:39.991Z,6.20
2023-04-16T08:15:41.758Z,6.20
2023-04-16T08:17:43.422Z,6.20
2023-04-16T08:19:45.267Z,6.20
2023-04-16T08:21:47.365Z,6.10
2023-04-16T08:23:49.171Z,6.10
2023-04-16T08:25:52.933Z,6.10
2023-04-16T08:27:55.058Z,6.10
2023-04-16T08:29:56.745Z,6.20
2023-04-16T08:31:59.328Z,6.20
2023-04-16T08:34:01.526Z,6.30
2023-04-16T08:36:03.475Z,6.30
2023-04-16T08:38:05.174Z,6.30
2023-04-16T08:40:08.852Z,6.30
2023-04-16T08:42:23.414Z,6.30
2023-04-16T08:44:32.385Z,6.20
2023-04-16T08:46:39.080Z,6.20
2023-04-16T08:48:43.576Z,6.20
2023-04-16T08:50:48.895Z,6.20
2023-04-16T08:52:52.794Z,6.20
2023-04-16T08:55:06.444Z,6.30
2023-04-16T08:57:11.824Z,6.30
2023-04-16T08:59:13.813Z,6.30
2023-04-16T09:01:18.075Z,6.30
2023-04-16T09:03:21.718Z,6.20
2023-04-16T09:05:25.724Z,6.20
2023-04-16T09:07:29.074Z,6.20
2023-04-16T09:09:33.430Z,6.30
2023-04-16T09:11:36.436Z,6.20
2023-04-16T09:13:38.397Z,6.20
2023-04-16T09:15:41.067Z,6.20
2023-04-16T09:17:42.925Z,6.20
2023-04-16T09:19:45.518Z,6.20
2023-04-16T09:21:47.983Z,6.30
2023-04-16T09:23:49.808Z,6.30
2023-04-16T09:25:51.714Z,6.30
2023-04-16T09:27:53.510Z,6.30
2023-04-16T09:29:55.272Z,6.20
2023-04-16T09:32:03.549Z,6.20
2023-04-16T09:34:09.515Z,6.30
2023-04-16T09:36:11.189Z,6.30
2023-04-16T09:38:13.019Z,6.30
2023-04-16T09:40:24.715Z,6.30
2023-04-16T09:42:28.710Z,6.30
2023-04-16T09:44:37.673Z,6.30
2023-04-16T09:46:42.902Z,6.30
2023-04-16T09:48:46.251Z,6.30
2023-04-16T09:50:52.179Z,6.30
2023-04-16T09:52:53.828Z,6.30
2023-04-16T09:54:56.271Z,6.40
2023-04-16T09:57:00.991Z,6.40
2023-04-16T09:59:02.839Z,6.40
2023-04-16T10:01:12.814Z,6.40
2023-04-16T10:03:14.787Z,6.50
2023-04-16T10:05:20.037Z,6.40
2023-04-16T10:07:22.121Z,6.50
2023-04-16T10:09:23.934Z,6.50
2023-04-16T10:11:26.289Z,6.50
2023-04-16T10:13:28.545Z,6.50
2023-04-16T10:15:31.020Z,6.50
2023-04-16T10:17:33.322Z,6.50
2023-04-16T10:19:36.082Z,6.50
2023-04-16T10:21:37.812Z,6.50
2023-04-16T10:23:40.291Z,6.50
2023-04-16T10:25:42.959Z,6.40
2023-04-16T10:27:45.896Z,6.40
2023-04-16T10:29:48.862Z,6.40
2023-04-16T10:31:51.562Z,6.40
2023-04-16T10:33:53.614Z,6.30
2023-04-16T10:36:13.023Z,6.30
2023-04-16T10:38:27.779Z,6.40
2023-04-16T10:40:29.664Z,6.30
2023-04-16T10:42:31.611Z,6.30
2023-04-16T10:44:33.810Z,6.30
2023-04-16T10:46:43.632Z,6.30
2023-04-16T10:48:50.408Z,6.30
2023-04-16T10:50:57.528Z,6.20
2023-04-16T10:53:19.292Z,6.30
2023-04-16T10:55:21.232Z,6.30
2023-04-16T10:57:23.199Z,6.30
2023-04-16T10:59:25.745Z,6.30
2023-04-16T11:01:32.662Z,6.30
2023-04-16T11:03:34.518Z,6.30
2023-04-16T11:05:49.394Z,6.30
2023-04-16T11:07:51.037Z,6.30
2023-04-16T11:10:00.220Z,6.30
2023-04-16T11:12:07.011Z,6.20
2023-04-16T11:14:10.834Z,6.30
2023-04-16T11:16:16.798Z,6.30
2023-04-16T11:18:21.637Z,6.40
2023-04-16T11:20:25.579Z,6.40
2023-04-16T11:22:27.551Z,6.40
2023-04-16T11:24:33.062Z,6.30
2023-04-16T11:26:34.769Z,6.40
2023-04-16T11:28:36.773Z,6.40
2023-04-16T11:30:39.924Z,6.50
2023-04-16T11:32:42.367Z,6.40
2023-04-16T11:34:47.841Z,6.40
2023-04-16T11:36:52.232Z,6.40
2023-04-16T11:39:02.049Z,6.40
2023-04-16T11:41:04.013Z,6.40
2023-04-16T11:43:15.489Z,6.40
2023-04-16T11:45:19.506Z,6.60
2023-04-16T11:47:22.313Z,6.70
2023-04-16T11:49:28.453Z,6.70
2023-04-16T11:51:30.152Z,6.60
2023-04-16T11:53:31.808Z,6.60
2023-04-16T11:55:44.714Z,6.60
2023-04-16T11:57:46.727Z,6.60
2023-04-16T12:00:01.351Z,6.50
2023-04-16T12:02:04.892Z,6.50
2023-04-16T12:04:08.255Z,6.50
2023-04-16T12:06:10.747Z,6.60
2023-04-16T12:08:12.764Z,6.70
2023-04-16T12:10:14.568Z,6.70
2023-04-16T12:12:33.204Z,6.70
2023-04-16T12:14:34.971Z,6.60
2023-04-16T12:16:36.823Z,6.70
2023-04-16T12:18:59.124Z,6.70
2023-04-16T12:21:05.890Z,6.80
2023-04-16T12:23:08.477Z,6.70
2023-04-16T12:25:17.937Z,6.70
2023-04-16T12:27:19.634Z,6.70
2023-04-16T12:29:30.317Z,6.70
2023-04-16T12:31:38.349Z,6.70
2023-04-16T12:33:40.156Z,6.70
2023-04-16T12:35:43.355Z,6.70
2023-04-16T12:37:45.508Z,6.70
2023-04-16T12:39:48.128Z,6.70
2023-04-16T12:41:49.890Z,6.70
2023-04-16T12:43:51.826Z,6.70
2023-04-16T12:45:53.609Z,6.70
2023-04-16T12:47:55.921Z,6.70
2023-04-16T12:49:58.070Z,6.80
2023-04-16T12:51:59.763Z,6.80
2023-04-16T12:54:03.324Z,6.80
2023-04-16T12:56:05.126Z,6.80
2023-04-16T12:58:06.971Z,6.80
2023-04-16T13:00:12.627Z,6.80
2023-04-16T13:02:14.612Z,6.80
2023-04-16T13:04:17.826Z,6.80
2023-04-16T13:06:20.746Z,6.80
2023-04-16T13:08:22.625Z,6.80
2023-04-16T13:10:24.511Z,6.80
2023-04-16T13:12:27.179Z,6.80
2023-04-16T13:14:28.949Z,6.80
2023-04-16T13:16:30.696Z,6.80
2023-04-16T13:18:32.969Z,6.80
2023-04-16T13:20:34.738Z,6.80
2023-04-16T13:22:36.454Z,6.80
2023-04-16T13:24:38.969Z,6.80
2023-04-16T13:26:40.633Z,6.80
2023-04-16T13:28:42.411Z,6.80
2023-04-16T13:30:44.211Z,6.80
2023-04-16T13:32:46.834Z,6.90
2023-04-16T13:34:48.540Z,6.90
2023-04-16T13:36:50.193Z,6.80
2023-04-16T13:38:51.858Z,6.90
2023-04-16T13:40:53.667Z,6.90
2023-04-16T13:42:55.519Z,6.90
2023-04-16T13:44:58.074Z,6.90
2023-04-16T13:47:00.429Z,6.90
2023-04-16T13:49:02.505Z,6.90
2023-04-16T13:51:04.234Z,6.90
2023-04-16T13:53:06.310Z,6.80
2023-04-16T13:55:09.753Z,6.90
2023-04-16T13:57:12.519Z,6.90
2023-04-16T13:59:15.614Z,7.00
2023-04-16T14:01:17.392Z,7.00
2023-04-16T14:03:19.209Z,7.00
2023-04-16T14:05:24.052Z,6.90
2023-04-16T14:07:27.054Z,6.90
2023-04-16T14:09:28.711Z,6.90
2023-04-16T14:11:31.111Z,6.90
2023-04-16T14:13:32.805Z,7.00
2023-04-16T14:15:34.655Z,7.00
2023-04-16T14:17:39.401Z,7.00
2023-04-16T14:19:41.977Z,7.00
2023-04-16T14:21:43.634Z,7.00
2023-04-16T14:23:45.317Z,7.00
2023-04-16T14:25:47.010Z,6.90
2023-04-16T14:27:48.741Z,7.00
2023-04-16T14:29:50.892Z,7.00
2023-04-16T14:31:52.720Z,7.00
2023-04-16T14:33:54.473Z,7.00
2023-04-16T14:35:56.180Z,7.00
2023-04-16T14:37:58.295Z,7.00
2023-04-16T14:40:00.796Z,7.00
2023-04-16T14:42:03.183Z,7.00
2023-04-16T14:44:06.052Z,7.00
2023-04-16T14:46:07.718Z,7.10
2023-04-16T14:48:09.490Z,7.10
2023-04-16T14:50:12.040Z,7.10
2023-04-16T14:52:13.761Z,7.10
2023-04-16T14:54:15.743Z,7.20
2023-04-16T14:56:17.389Z,7.20
2023-04-16T14:58:19.211Z,7.20
2023-04-16T15:00:21.140Z,7.20
2023-04-16T15:02:23.390Z,7.20
2023-04-16T15:04:26.190Z,7.20
2023-04-16T15:06:28.577Z,7.20
2023-04-16T15:08:30.240Z,7.20
2023-04-16T15:10:32.786Z,7.20
2023-04-16T15:12:34.566Z,7.20
2023-04-16T15:14:36.308Z,7.20
2023-04-16T15:16:38.069Z,7.20
2023-04-16T15:18:39.839Z,7.20
2023-04-16T15:20:41.651Z,7.20
2023-04-16T15:22:43.400Z,7.20
2023-04-16T15:24:45.346Z,7.10
2023-04-16T15:26:46.957Z,7.20
2023-04-16T15:28:48.595Z,7.20
2023-04-16T15:30:51.968Z,7.20
2023-04-16T15:32:55.009Z,7.20
2023-04-16T15:34:56.824Z,7.20
2023-04-16T15:36:58.565Z,7.20
2023-04-16T15:39:00.336Z,7.20
2023-04-16T15:41:02.058Z,7.20
2023-04-16T15:43:03.853Z,7.30
2023-04-16T15:45:05.968Z,7.20
2023-04-16T15:47:08.643Z,7.30
2023-04-16T15:49:10.512Z,7.30
2023-04-16T15:51:12.463Z,7.20
2023-04-16T15:53:14.342Z,7.30
2023-04-16T15:55:17.585Z,7.20
2023-04-16T15:57:19.206Z,7.20
2023-04-16T15:59:21.018Z,7.20
2023-04-16T16:01:22.805Z,7.20
2023-04-16T16:03:24.648Z,7.20
2023-04-16T16:05:27.272Z,7.20
2023-04-16T16:07:28.985Z,7.20
2023-04-16T16:09:30.981Z,7.20
2023-04-16T16:11:32.843Z,7.20
2023-04-16T16:13:35.918Z,7.20
2023-04-16T16:15:39.442Z,7.20
2023-04-16T16:17:41.257Z,7.20
2023-04-16T16:19:44.660Z,7.20
2023-04-16T16:21:48.028Z,7.20
2023-04-16T16:23:49.791Z,7.20
2023-04-16T16:25:52.345Z,7.30
2023-04-16T16:27:53.992Z,7.20
2023-04-16T16:29:55.933Z,7.30
2023-04-16T16:31:57.765Z,7.30
2023-04-16T16:33:59.529Z,7.30
2023-04-16T16:36:01.225Z,7.20
2023-04-16T16:38:03.079Z,7.20
2023-04-16T16:40:05.437Z,7.20
2023-04-16T16:42:09.110Z,7.20
2023-04-16T16:44:11.079Z,7.20
2023-04-16T16:46:12.804Z,7.20
2023-04-16T16:48:14.513Z,7.30
2023-04-16T16:50:16.513Z,7.30
2023-04-16T16:52:18.210Z,7.20
2023-04-16T16:54:19.898Z,7.20
2023-04-16T16:56:21.815Z,7.20
2023-04-16T16:58:23.439Z,7.20
2023-04-16T17:00:25.446Z,7.20
2023-04-16T17:02:27.234Z,7.20
2023-04-16T17:04:28.979Z,7.20
2023-04-16T17:06:31.965Z,7.20
2023-04-16T17:08:33.686Z,7.20
2023-04-16T17:10:35.958Z,7.20
2023-04-16T17:12:37.644Z,7.20
2023-04-16T17:14:39.415Z,7.30
2023-04-16T17:16:41.250Z,7.30
2023-04-16T17:18:43.080Z,7.30
2023-04-16T17:20:44.794Z,7.30
2023-04-16T17:22:46.468Z,7.30
2023-04-16T17:24:48.161Z,7.30
2023-04-16T17:26:50.679Z,7.30
2023-04-16T17:28:53.280Z,7.30
2023-04-16T17:30:56.777Z,7.30
2023-04-16T17:32:58.593Z,7.30
2023-04-16T17:35:03.911Z,7.30
2023-04-16T17:37:05.773Z,7.30
2023-04-16T17:39:07.454Z,7.30
2023-04-16T17:41:09.122Z,7.30
2023-04-16T17:43:10.792Z,7.30
2023-04-16T17:45:12.720Z,7.40
2023-04-16T17:47:14.412Z,7.40
2023-04-16T17:49:16.099Z,7.40
2023-04-16T17:51:17.821Z,7.30
2023-04-16T17:53:19.530Z,7.30
2023-04-16T17:55:21.492Z,7.30
2023-04-16T17:57:23.122Z,7.30
2023-04-16T17:59:24.763Z,7.30
2023-04-16T18:01:27.318Z,7.30
2023-04-16T18:03:29.465Z,7.30
2023-04-16T18:05:31.220Z,7.30
2023-04-16T18:07:33.491Z,7.30
2023-04-16T18:11:54.675Z,7.30
2023-04-16T18:13:56.353Z,7.30
2023-04-16T18:15:58.204Z,7.30
2023-04-16T18:17:59.909Z,7.30
2023-04-16T18:20:01.662Z,7.30
2023-04-16T18:22:03.348Z,7.40
2023-04-16T18:24:05.440Z,7.30
2023-04-16T18:26:08.503Z,7.30
2023-04-16T18:28:13.794Z,7.30
2023-04-16T18:30:22.940Z,7.30
2023-04-16T18:32:30.780Z,7.30
2023-04-16T18:34:33.117Z,7.30
2023-04-16T18:36:35.536Z,7.30
2023-04-16T18:38:46.353Z,7.30
2023-04-16T18:40:51.357Z,7.30
2023-04-16T18:42:53.046Z,7.40
2023-04-16T18:44:55.065Z,7.30
2023-04-16T18:46:56.956Z,7.40
2023-04-16T18:49:01.450Z,7.30
2023-04-16T18:51:03.323Z,7.40
2023-04-16T18:53:04.995Z,7.40
2023-04-16T18:55:07.272Z,7.40
2023-04-16T18:57:08.975Z,7.40
2023-04-16T18:59:10.845Z,7.30
2023-04-16T19:01:13.942Z,7.30
2023-04-16T19:03:15.767Z,7.30
2023-04-16T19:05:17.836Z,7.40
2023-04-16T19:07:19.494Z,7.30
2023-04-16T19:09:21.307Z,7.30
2023-04-16T19:11:23.038Z,7.30
2023-04-16T19:13:24.665Z,7.30
2023-04-16T19:15:27.117Z,7.30
2023-04-16T19:17:29.563Z,7.30
2023-04-16T19:19:31.671Z,7.30
2023-04-16T19:21:33.631Z,7.30
2023-04-16T19:23:35.611Z,7.30
2023-04-16T19:25:37.358Z,7.30
2023-04-16T19:27:39.063Z,7.30
2023-04-16T19:29:42.749Z,7.30
2023-04-16T19:31:46.931Z,7.30
2023-04-16T19:33:48.656Z,7.30
2023-04-16T19:35:50.373Z,7.30
2023-04-16T19:37:52.012Z,7.30
2023-04-16T19:39:54.833Z,7.30
2023-04-16T19:41:56.550Z,7.30
2023-04-16T19:43:58.279Z,7.30
2023-04-16T19:46:00.046Z,7.30
2023-04-16T19:48:01.909Z,7.30
2023-04-16T19:50:03.767Z,7.30
2023-04-16T19:52:05.496Z,7.30
2023-04-16T19:54:07.232Z,7.30
2023-04-16T19:56:09.021Z,7.30
2023-04-16T19:58:10.755Z,7.30
2023-04-16T20:00:12.965Z,7.20
2023-04-16T20:02:14.629Z,7.20
2023-04-16T20:04:16.378Z,7.20
2023-04-16T20:06:18.049Z,7.20
2023-04-16T20:08:19.733Z,7.30
2023-04-16T20:10:21.762Z,7.30
2023-04-16T20:12:23.504Z,7.30
2023-04-16T20:14:25.195Z,7.30
2023-04-16T20:16:26.961Z,7.20
2023-04-16T20:18:29.005Z,7.20
2023-04-16T20:20:30.937Z,7.20
2023-04-16T20:22:32.592Z,7.20
2023-04-16T20:24:34.380Z,7.20
2023-04-16T20:26:36.617Z,7.20
2023-04-16T20:28:38.280Z,7.20
2023-04-16T20:30:40.135Z,7.20
2023-04-16T20:32:42.046Z,7.20
2023-04-16T20:34:43.781Z,7.20
2023-04-16T20:36:45.725Z,7.20
2023-04-16T20:38:47.437Z,7.20
2023-04-16T20:40:57.946Z,7.20
2023-04-16T20:43:00.376Z,7.20
2023-04-16T20:45:02.315Z,7.20
2023-04-16T20:47:04.011Z,7.20
2023-04-16T20:49:08.190Z,7.20
2023-04-16T20:51:10.192Z,7.20
2023-04-16T20:53:13.040Z,7.20
2023-04-16T20:55:14.752Z,7.20
2023-04-16T20:57:16.458Z,7.20
2023-04-16T20:59:18.170Z,7.20
2023-04-16T21:01:20.510Z,7.20
2023-04-16T21:03:22.404Z,7.20
2023-04-16T21:05:26.587Z,7.20
2023-04-16T21:07:28.385Z,7.20
2023-04-16T21:09:30.894Z,7.20
2023-04-16T21:11:34.680Z,7.20
2023-04-16T21:13:36.306Z,7.20
2023-04-16T21:15:42.291Z,7.10
2023-04-16T21:17:44.004Z,7.10
2023-04-16T21:19:45.853Z,7.10
2023-04-16T21:21:47.512Z,7.00
2023-04-16T21:23:49.474Z,7.00
2023-04-16T21:25:51.119Z,7.00
2023-04-16T21:27:52.991Z,7.10
2023-04-16T21:29:54.603Z,7.10
2023-04-16T21:31:56.311Z,7.00
2023-04-16T21:33:57.996Z,7.00
2023-04-16T21:35:59.817Z,7.00
2023-04-16T21:38:01.546Z,7.00
2023-04-16T21:40:06.086Z,7.00
2023-04-16T21:42:07.718Z,7.00
2023-04-16T21:44:09.335Z,7.00
2023-04-16T21:46:11.050Z,7.00
2023-04-16T21:48:12.916Z,7.00
2023-04-16T21:50:14.751Z,7.00
2023-04-16T21:52:18.501Z,7.00
2023-04-16T21:54:20.613Z,7.00
2023-04-16T21:56:22.887Z,7.00
2023-04-16T21:58:25.836Z,7.00
2023-04-16T22:00:27.568Z,7.00
2023-04-16T22:02:29.366Z,7.00
2023-04-16T22:04:37.365Z,7.00
2023-04-16T22:06:38.962Z,6.90
2023-04-16T22:08:40.708Z,6.90
2023-04-16T22:10:42.301Z,6.90
2023-04-16T22:12:47.145Z,6.90
2023-04-16T22:14:59.589Z,6.90
2023-04-16T22:17:04.299Z,6.90
2023-04-16T22:19:05.973Z,6.90
2023-04-16T22:21:07.715Z,6.90
2023-04-16T22:23:09.419Z,6.90
2023-04-16T22:25:11.517Z,6.90
2023-04-16T22:27:13.168Z,6.80
2023-04-16T22:29:15.138Z,6.80
2023-04-16T22:31:16.894Z,6.80
2023-04-16T22:33:18.658Z,6.80
2023-04-16T22:35:20.389Z,7.00
2023-04-16T22:37:22.167Z,6.80
2023-04-16T22:39:23.773Z,6.80
2023-04-16T22:41:25.502Z,6.80
2023-04-16T22:43:27.185Z,6.80
2023-04-16T22:45:29.256Z,6.80
2023-04-16T22:47:30.975Z,6.80
2023-04-16T22:49:33.107Z,6.80
2023-04-16T22:51:35.187Z,6.80
2023-04-16T22:53:36.972Z,6.80
2023-04-16T22:55:38.617Z,6.80
2023-04-16T22:57:40.549Z,6.80
2023-04-16T22:59:42.252Z,6.90
2023-04-16T23:01:43.993Z,6.80
2023-04-16T23:03:45.806Z,6.80
2023-04-16T23:05:49.035Z,6.80
2023-04-16T23:07:50.836Z,6.80
2023-04-16T23:09:52.511Z,6.80
2023-04-16T23:11:54.179Z,6.80
2023-04-16T23:13:56.164Z,6.80
2023-04-16T23:15:58.119Z,6.80
2023-04-16T23:17:59.766Z,6.80
2023-04-16T23:20:01.495Z,6.80
2023-04-16T23:22:03.817Z,6.80
2023-04-16T23:24:05.688Z,6.80
2023-04-16T23:26:07.415Z,6.70
2023-04-16T23:28:09.135Z,6.70
2023-04-16T23:30:11.400Z,6.80
2023-04-16T23:32:13.235Z,6.80
2023-04-16T23:34:15.021Z,6.80
2023-04-16T23:36:17.040Z,6.80
2023-04-16T23:38:18.654Z,6.80
2023-04-16T23:40:20.613Z,6.70
2023-04-16T23:42:22.302Z,6.80
2023-04-16T23:44:24.058Z,6.70
2023-04-16T23:46:26.237Z,6.80
2023-04-16T23:48:28.510Z,6.80
2023-04-16T23:50:30.396Z,6.80
2023-04-16T23:52:32.015Z,6.80
2023-04-16T23:54:33.776Z,6.70
2023-04-16T23:56:35.565Z,6.80
2023-04-16T23:58:37.328Z,6.80
